sensor_id;sensor_type;location;lat;lon;timestamp;temperature;humidity
71291;DHT22;59073;51.994;4.448;2022-07-04T00:00:16;15.44;79.66
71291;DHT22;59073;51.994;4.448;2022-07-04T00:02:43;15.53;79.40
71291;DHT22;59073;51.994;4.448;2022-07-04T00:05:09;15.58;79.37
71291;DHT22;59073;51.994;4.448;2022-07-04T00:07:46;15.62;79.67
71291;DHT22;59073;51.994;4.448;2022-07-04T00:10:18;15.70;79.52
71291;DHT22;59073;51.994;4.448;2022-07-04T00:12:44;15.75;79.24
71291;DHT22;59073;51.994;4.448;2022-07-04T00:15:11;15.80;79.06
71291;DHT22;59073;51.994;4.448;2022-07-04T00:17:37;15.84;79.13
71291;DHT22;59073;51.994;4.448;2022-07-04T00:20:04;15.82;78.74
71291;DHT22;59073;51.994;4.448;2022-07-04T00:22:30;15.84;78.88
71291;DHT22;59073;51.994;4.448;2022-07-04T00:24:55;15.90;78.73
71291;DHT22;59073;51.994;4.448;2022-07-04T00:27:21;15.90;78.91
71291;DHT22;59073;51.994;4.448;2022-07-04T00:29:46;15.85;78.54
71291;DHT22;59073;51.994;4.448;2022-07-04T00:32:12;15.87;78.38
71291;DHT22;59073;51.994;4.448;2022-07-04T00:34:37;15.87;78.94
71291;DHT22;59073;51.994;4.448;2022-07-04T00:37:03;15.85;79.61
71291;DHT22;59073;51.994;4.448;2022-07-04T00:39:29;15.87;79.65
71291;DHT22;59073;51.994;4.448;2022-07-04T00:41:55;15.87;78.96
71291;DHT22;59073;51.994;4.448;2022-07-04T00:44:20;15.77;78.44
71291;DHT22;59073;51.994;4.448;2022-07-04T00:46:46;15.64;78.86
71291;DHT22;59073;51.994;4.448;2022-07-04T00:49:14;15.55;78.85
71291;DHT22;59073;51.994;4.448;2022-07-04T00:51:41;15.40;78.98
71291;DHT22;59073;51.994;4.448;2022-07-04T00:54:09;15.34;79.05
71291;DHT22;59073;51.994;4.448;2022-07-04T00:56:36;15.33;79.30
71291;DHT22;59073;51.994;4.448;2022-07-04T00:59:02;15.26;79.48
71291;DHT22;59073;51.994;4.448;2022-07-04T01:01:28;15.22;79.60
71291;DHT22;59073;51.994;4.448;2022-07-04T01:03:55;15.22;79.53
71291;DHT22;59073;51.994;4.448;2022-07-04T01:06:20;15.31;80.02
71291;DHT22;59073;51.994;4.448;2022-07-04T01:08:46;15.44;80.23
71291;DHT22;59073;51.994;4.448;2022-07-04T01:11:13;15.53;79.63
71291;DHT22;59073;51.994;4.448;2022-07-04T01:13:39;15.51;79.14
71291;DHT22;59073;51.994;4.448;2022-07-04T01:16:09;15.44;79.03
71291;DHT22;59073;51.994;4.448;2022-07-04T01:18:34;15.44;79.32
71291;DHT22;59073;51.994;4.448;2022-07-04T01:21:00;15.43;79.08
71291;DHT22;59073;51.994;4.448;2022-07-04T01:23:25;15.46;79.21
71291;DHT22;59073;51.994;4.448;2022-07-04T01:25:51;15.53;79.30
71291;DHT22;59073;51.994;4.448;2022-07-04T01:28:21;15.57;79.20
71291;DHT22;59073;51.994;4.448;2022-07-04T01:30:47;15.55;79.50
71291;DHT22;59073;51.994;4.448;2022-07-04T01:33:13;15.61;79.78
71291;DHT22;59073;51.994;4.448;2022-07-04T01:35:40;15.67;79.62
71291;DHT22;59073;51.994;4.448;2022-07-04T01:38:06;15.68;79.56
71291;DHT22;59073;51.994;4.448;2022-07-04T01:40:32;15.74;79.55
71291;DHT22;59073;51.994;4.448;2022-07-04T01:42:58;15.80;79.69
71291;DHT22;59073;51.994;4.448;2022-07-04T01:45:24;15.85;79.53
71291;DHT22;59073;51.994;4.448;2022-07-04T01:47:50;15.85;79.44
71291;DHT22;59073;51.994;4.448;2022-07-04T01:50:15;15.82;78.75
71291;DHT22;59073;51.994;4.448;2022-07-04T01:52:41;15.74;78.52
71291;DHT22;59073;51.994;4.448;2022-07-04T01:55:09;15.72;78.23
71291;DHT22;59073;51.994;4.448;2022-07-04T01:57:34;15.68;78.32
71291;DHT22;59073;51.994;4.448;2022-07-04T02:00:00;15.53;78.05
71291;DHT22;59073;51.994;4.448;2022-07-04T02:02:44;15.44;78.51
71291;DHT22;59073;51.994;4.448;2022-07-04T02:05:09;15.37;78.86
71291;DHT22;59073;51.994;4.448;2022-07-04T02:07:35;15.31;78.73
71291;DHT22;59073;51.994;4.448;2022-07-04T02:10:01;15.33;78.63
71291;DHT22;59073;51.994;4.448;2022-07-04T02:12:26;15.36;79.09
71291;DHT22;59073;51.994;4.448;2022-07-04T02:15:10;15.41;79.26
71291;DHT22;59073;51.994;4.448;2022-07-04T02:17:36;15.44;78.84
71291;DHT22;59073;51.994;4.448;2022-07-04T02:20:02;15.40;79.17
71291;DHT22;59073;51.994;4.448;2022-07-04T02:22:30;15.26;79.34
71291;DHT22;59073;51.994;4.448;2022-07-04T02:24:56;15.16;79.95
71291;DHT22;59073;51.994;4.448;2022-07-04T02:27:21;15.13;80.34
71291;DHT22;59073;51.994;4.448;2022-07-04T02:29:47;15.10;80.08
71291;DHT22;59073;51.994;4.448;2022-07-04T02:32:12;15.16;80.22
71291;DHT22;59073;51.994;4.448;2022-07-04T02:34:37;15.39;80.52
71291;DHT22;59073;51.994;4.448;2022-07-04T02:37:03;15.37;79.72
71291;DHT22;59073;51.994;4.448;2022-07-04T02:39:28;15.19;80.30
71291;DHT22;59073;51.994;4.448;2022-07-04T02:41:54;15.24;80.67
71291;DHT22;59073;51.994;4.448;2022-07-04T02:44:19;15.49;80.54
71291;DHT22;59073;51.994;4.448;2022-07-04T02:46:45;15.67;80.89
71291;DHT22;59073;51.994;4.448;2022-07-04T02:49:10;15.68;80.55
71291;DHT22;59073;51.994;4.448;2022-07-04T02:51:36;15.77;80.35
71291;DHT22;59073;51.994;4.448;2022-07-04T02:54:02;15.78;79.67
71291;DHT22;59073;51.994;4.448;2022-07-04T02:56:27;15.75;79.50
71291;DHT22;59073;51.994;4.448;2022-07-04T02:58:52;15.67;79.15
71291;DHT22;59073;51.994;4.448;2022-07-04T03:01:18;15.65;79.68
71291;DHT22;59073;51.994;4.448;2022-07-04T03:03:45;15.77;79.77
71291;DHT22;59073;51.994;4.448;2022-07-04T03:06:12;15.68;79.52
71291;DHT22;59073;51.994;4.448;2022-07-04T03:08:38;15.61;79.82
71291;DHT22;59073;51.994;4.448;2022-07-04T03:11:05;15.72;79.98
71291;DHT22;59073;51.994;4.448;2022-07-04T03:13:31;15.77;79.92
71291;DHT22;59073;51.994;4.448;2022-07-04T03:15:57;15.67;79.77
71291;DHT22;59073;51.994;4.448;2022-07-04T03:18:23;15.54;79.94
71291;DHT22;59073;51.994;4.448;2022-07-04T03:20:49;15.40;80.20
71291;DHT22;59073;51.994;4.448;2022-07-04T03:23:16;15.24;80.49
71291;DHT22;59073;51.994;4.448;2022-07-04T03:25:42;15.26;80.95
71291;DHT22;59073;51.994;4.448;2022-07-04T03:28:08;15.36;80.32
71291;DHT22;59073;51.994;4.448;2022-07-04T03:30:33;15.47;81.13
71291;DHT22;59073;51.994;4.448;2022-07-04T03:32:59;15.61;80.41
71291;DHT22;59073;51.994;4.448;2022-07-04T03:35:25;15.75;80.51
71291;DHT22;59073;51.994;4.448;2022-07-04T03:37:51;15.84;80.01
71291;DHT22;59073;51.994;4.448;2022-07-04T03:40:18;15.94;79.78
71291;DHT22;59073;51.994;4.448;2022-07-04T03:42:43;15.95;79.71
71291;DHT22;59073;51.994;4.448;2022-07-04T03:45:09;15.78;80.48
71291;DHT22;59073;51.994;4.448;2022-07-04T03:47:35;15.64;81.49
71291;DHT22;59073;51.994;4.448;2022-07-04T03:50:01;15.62;81.55
71291;DHT22;59073;51.994;4.448;2022-07-04T03:52:26;15.82;81.28
71291;DHT22;59073;51.994;4.448;2022-07-04T03:54:52;16.12;80.17
71291;DHT22;59073;51.994;4.448;2022-07-04T03:57:18;16.43;79.49
71291;DHT22;59073;51.994;4.448;2022-07-04T03:59:43;16.84;77.91
71291;DHT22;59073;51.994;4.448;2022-07-04T04:02:09;17.03;77.05
71291;DHT22;59073;51.994;4.448;2022-07-04T04:04:34;17.14;77.26
71291;DHT22;59073;51.994;4.448;2022-07-04T04:07:18;17.22;76.88
71291;DHT22;59073;51.994;4.448;2022-07-04T04:09:44;17.22;76.12
71291;DHT22;59073;51.994;4.448;2022-07-04T04:12:09;16.91;77.01
71291;DHT22;59073;51.994;4.448;2022-07-04T04:14:35;17.04;77.23
71291;DHT22;59073;51.994;4.448;2022-07-04T04:17:00;17.11;77.04
71291;DHT22;59073;51.994;4.448;2022-07-04T04:19:25;17.24;76.35
71291;DHT22;59073;51.994;4.448;2022-07-04T04:21:51;17.38;75.87
71291;DHT22;59073;51.994;4.448;2022-07-04T04:24:16;17.76;75.44
71291;DHT22;59073;51.994;4.448;2022-07-04T04:26:42;18.17;74.40
71291;DHT22;59073;51.994;4.448;2022-07-04T04:29:07;18.55;73.35
71291;DHT22;59073;51.994;4.448;2022-07-04T04:31:32;19.05;72.48
71291;DHT22;59073;51.994;4.448;2022-07-04T04:33:58;19.27;70.42
71291;DHT22;59073;51.994;4.448;2022-07-04T04:36:24;19.53;69.75
71291;DHT22;59073;51.994;4.448;2022-07-04T04:38:49;19.06;71.53
71291;DHT22;59073;51.994;4.448;2022-07-04T04:41:14;19.70;69.49
71291;DHT22;59073;51.994;4.448;2022-07-04T04:43:41;20.53;68.73
71291;DHT22;59073;51.994;4.448;2022-07-04T04:46:07;21.40;65.26
71291;DHT22;59073;51.994;4.448;2022-07-04T04:48:32;21.78;63.63
71291;DHT22;59073;51.994;4.448;2022-07-04T04:50:57;21.65;64.50
71291;DHT22;59073;51.994;4.448;2022-07-04T04:53:23;21.31;65.98
71291;DHT22;59073;51.994;4.448;2022-07-04T04:55:52;20.48;67.24
71291;DHT22;59073;51.994;4.448;2022-07-04T04:58:19;19.88;69.58
71291;DHT22;59073;51.994;4.448;2022-07-04T05:00:44;19.69;71.10
71291;DHT22;59073;51.994;4.448;2022-07-04T05:03:11;19.50;72.10
71291;DHT22;59073;51.994;4.448;2022-07-04T05:05:36;19.26;73.33
71291;DHT22;59073;51.994;4.448;2022-07-04T05:08:02;18.94;75.05
71291;DHT22;59073;51.994;4.448;2022-07-04T05:10:27;19.02;76.22
71291;DHT22;59073;51.994;4.448;2022-07-04T05:12:52;19.24;75.53
71291;DHT22;59073;51.994;4.448;2022-07-04T05:15:18;19.36;75.42
71291;DHT22;59073;51.994;4.448;2022-07-04T05:17:43;19.59;75.73
71291;DHT22;59073;51.994;4.448;2022-07-04T05:20:09;19.54;74.90
71291;DHT22;59073;51.994;4.448;2022-07-04T05:22:35;20.72;73.22
71291;DHT22;59073;51.994;4.448;2022-07-04T05:25:00;20.75;71.23
71291;DHT22;59073;51.994;4.448;2022-07-04T05:27:26;20.53;71.72
71291;DHT22;59073;51.994;4.448;2022-07-04T05:29:51;20.21;73.05
71291;DHT22;59073;51.994;4.448;2022-07-04T05:32:17;20.17;73.47
71291;DHT22;59073;51.994;4.448;2022-07-04T05:34:42;22.02;67.83
71291;DHT22;59073;51.994;4.448;2022-07-04T05:37:08;23.37;63.50
71291;DHT22;59073;51.994;4.448;2022-07-04T05:39:33;22.23;65.53
71291;DHT22;59073;51.994;4.448;2022-07-04T05:41:59;21.92;67.44
71291;DHT22;59073;51.994;4.448;2022-07-04T05:44:24;23.43;63.25
71291;DHT22;59073;51.994;4.448;2022-07-04T05:46:50;24.27;60.18
71291;DHT22;59073;51.994;4.448;2022-07-04T05:49:16;23.53;61.16
71291;DHT22;59073;51.994;4.448;2022-07-04T05:51:41;23.93;60.65
71291;DHT22;59073;51.994;4.448;2022-07-04T05:54:06;24.82;57.83
71291;DHT22;59073;51.994;4.448;2022-07-04T05:56:32;25.46;57.06
71291;DHT22;59073;51.994;4.448;2022-07-04T05:58:57;25.74;55.86
71291;DHT22;59073;51.994;4.448;2022-07-04T06:01:23;26.39;53.95
71291;DHT22;59073;51.994;4.448;2022-07-04T06:03:48;26.84;53.39
71291;DHT22;59073;51.994;4.448;2022-07-04T06:06:14;26.91;52.67
71291;DHT22;59073;51.994;4.448;2022-07-04T06:08:41;27.21;50.38
71291;DHT22;59073;51.994;4.448;2022-07-04T06:11:06;27.15;51.20
71291;DHT22;59073;51.994;4.448;2022-07-04T06:13:31;27.45;50.21
71291;DHT22;59073;51.994;4.448;2022-07-04T06:15:57;27.35;49.43
71291;DHT22;59073;51.994;4.448;2022-07-04T06:18:22;27.57;49.71
71291;DHT22;59073;51.994;4.448;2022-07-04T06:20:49;27.84;49.47
71291;DHT22;59073;51.994;4.448;2022-07-04T06:23:14;27.99;47.43
71291;DHT22;59073;51.994;4.448;2022-07-04T06:25:40;28.09;48.10
71291;DHT22;59073;51.994;4.448;2022-07-04T06:28:06;28.13;47.87
71291;DHT22;59073;51.994;4.448;2022-07-04T06:30:31;28.01;48.43
71291;DHT22;59073;51.994;4.448;2022-07-04T06:32:58;28.14;47.98
71291;DHT22;59073;51.994;4.448;2022-07-04T06:35:31;28.33;47.70
71291;DHT22;59073;51.994;4.448;2022-07-04T06:38:23;28.24;49.10
71291;DHT22;59073;51.994;4.448;2022-07-04T06:40:50;28.26;47.59
71291;DHT22;59073;51.994;4.448;2022-07-04T06:43:16;26.82;46.00
71291;DHT22;59073;51.994;4.448;2022-07-04T06:45:42;26.68;46.42
71291;DHT22;59073;51.994;4.448;2022-07-04T06:48:08;26.73;45.25
71291;DHT22;59073;51.994;4.448;2022-07-04T06:50:34;26.39;45.11
71291;DHT22;59073;51.994;4.448;2022-07-04T06:53:05;26.69;47.67
71291;DHT22;59073;51.994;4.448;2022-07-04T06:55:31;26.86;46.23
71291;DHT22;59073;51.994;4.448;2022-07-04T06:57:57;26.82;47.71
71291;DHT22;59073;51.994;4.448;2022-07-04T07:00:23;26.35;49.10
71291;DHT22;59073;51.994;4.448;2022-07-04T07:02:49;26.18;47.98
71291;DHT22;59073;51.994;4.448;2022-07-04T07:05:14;25.88;47.77
71291;DHT22;59073;51.994;4.448;2022-07-04T07:07:39;25.70;50.33
71291;DHT22;59073;51.994;4.448;2022-07-04T07:10:05;25.74;50.03
71291;DHT22;59073;51.994;4.448;2022-07-04T07:12:32;25.82;46.97
71291;DHT22;59073;51.994;4.448;2022-07-04T07:14:59;25.70;50.07
71291;DHT22;59073;51.994;4.448;2022-07-04T07:17:25;25.47;49.51
71291;DHT22;59073;51.994;4.448;2022-07-04T07:19:51;25.44;49.61
71291;DHT22;59073;51.994;4.448;2022-07-04T07:22:16;25.39;47.57
71291;DHT22;59073;51.994;4.448;2022-07-04T07:24:42;25.37;49.86
71291;DHT22;59073;51.994;4.448;2022-07-04T07:27:08;25.47;49.68
71291;DHT22;59073;51.994;4.448;2022-07-04T07:29:35;25.33;45.83
71291;DHT22;59073;51.994;4.448;2022-07-04T07:32:00;24.73;46.61
71291;DHT22;59073;51.994;4.448;2022-07-04T07:34:26;24.83;51.33
71291;DHT22;59073;51.994;4.448;2022-07-04T07:36:52;25.10;51.66
71291;DHT22;59073;51.994;4.448;2022-07-04T07:39:17;25.15;49.94
71291;DHT22;59073;51.994;4.448;2022-07-04T07:41:43;25.50;49.92
71291;DHT22;59073;51.994;4.448;2022-07-04T07:44:09;25.27;50.82
71291;DHT22;59073;51.994;4.448;2022-07-04T07:46:34;25.56;49.61
71291;DHT22;59073;51.994;4.448;2022-07-04T07:48:59;25.84;50.59
71291;DHT22;59073;51.994;4.448;2022-07-04T07:51:25;26.14;48.49
71291;DHT22;59073;51.994;4.448;2022-07-04T07:53:51;25.98;48.46
71291;DHT22;59073;51.994;4.448;2022-07-04T07:56:16;26.05;48.23
71291;DHT22;59073;51.994;4.448;2022-07-04T07:58:41;26.14;48.13
71291;DHT22;59073;51.994;4.448;2022-07-04T08:01:07;26.56;48.33
71291;DHT22;59073;51.994;4.448;2022-07-04T08:03:32;27.06;48.21
71291;DHT22;59073;51.994;4.448;2022-07-04T08:06:16;27.45;47.77
71291;DHT22;59073;51.994;4.448;2022-07-04T08:08:43;27.29;45.53
71291;DHT22;59073;51.994;4.448;2022-07-04T08:11:10;26.56;46.41
71291;DHT22;59073;51.994;4.448;2022-07-04T08:13:36;26.28;48.28
71291;DHT22;59073;51.994;4.448;2022-07-04T08:16:02;25.63;46.95
71291;DHT22;59073;51.994;4.448;2022-07-04T08:18:28;24.96;48.70
71291;DHT22;59073;51.994;4.448;2022-07-04T08:20:54;24.41;50.94
71291;DHT22;59073;51.994;4.448;2022-07-04T08:23:19;24.30;52.11
71291;DHT22;59073;51.994;4.448;2022-07-04T08:25:45;24.13;52.52
71291;DHT22;59073;51.994;4.448;2022-07-04T08:28:11;23.63;50.98
71291;DHT22;59073;51.994;4.448;2022-07-04T08:30:36;23.53;52.21
71291;DHT22;59073;51.994;4.448;2022-07-04T08:33:01;23.39;51.88
71291;DHT22;59073;51.994;4.448;2022-07-04T08:35:27;23.32;51.95
71291;DHT22;59073;51.994;4.448;2022-07-04T08:37:52;23.22;52.65
71291;DHT22;59073;51.994;4.448;2022-07-04T08:40:26;23.15;53.56
71291;DHT22;59073;51.994;4.448;2022-07-04T08:42:52;23.10;54.49
71291;DHT22;59073;51.994;4.448;2022-07-04T08:45:26;23.02;52.12
71291;DHT22;59073;51.994;4.448;2022-07-04T08:47:59;23.31;52.04
71291;DHT22;59073;51.994;4.448;2022-07-04T08:50:33;22.98;52.76
71291;DHT22;59073;51.994;4.448;2022-07-04T08:53:07;22.91;51.86
71291;DHT22;59073;51.994;4.448;2022-07-04T08:55:35;22.28;53.19
71291;DHT22;59073;51.994;4.448;2022-07-04T08:58:19;22.42;52.16
71291;DHT22;59073;51.994;4.448;2022-07-04T09:01:00;22.74;52.38
71291;DHT22;59073;51.994;4.448;2022-07-04T09:03:28;22.84;55.13
71291;DHT22;59073;51.994;4.448;2022-07-04T09:05:55;23.79;52.61
71291;DHT22;59073;51.994;4.448;2022-07-04T09:08:22;24.16;51.46
71291;DHT22;59073;51.994;4.448;2022-07-04T09:10:48;24.17;50.32
71291;DHT22;59073;51.994;4.448;2022-07-04T09:13:15;24.17;49.79
71291;DHT22;59073;51.994;4.448;2022-07-04T09:15:45;23.92;50.24
71291;DHT22;59073;51.994;4.448;2022-07-04T09:20:54;23.84;50.28
71291;DHT22;59073;51.994;4.448;2022-07-04T09:23:23;24.17;48.58
71291;DHT22;59073;51.994;4.448;2022-07-04T09:26:12;24.47;48.00
71291;DHT22;59073;51.994;4.448;2022-07-04T09:28:41;25.12;49.44
71291;DHT22;59073;51.994;4.448;2022-07-04T09:31:18;24.93;49.20
71291;DHT22;59073;51.994;4.448;2022-07-04T09:33:57;24.34;48.24
71291;DHT22;59073;51.994;4.448;2022-07-04T09:36:26;23.86;49.16
71291;DHT22;59073;51.994;4.448;2022-07-04T09:39:11;23.15;49.95
71291;DHT22;59073;51.994;4.448;2022-07-04T09:41:59;22.81;52.36
71291;DHT22;59073;51.994;4.448;2022-07-04T09:44:43;22.67;52.45
71291;DHT22;59073;51.994;4.448;2022-07-04T09:47:26;22.50;51.91
71291;DHT22;59073;51.994;4.448;2022-07-04T09:50:10;23.16;51.10
71291;DHT22;59073;51.994;4.448;2022-07-04T09:52:51;23.00;51.37
71291;DHT22;59073;51.994;4.448;2022-07-04T09:55:36;22.39;51.40
71291;DHT22;59073;51.994;4.448;2022-07-04T09:58:15;22.17;53.99
71291;DHT22;59073;51.994;4.448;2022-07-04T10:00:45;22.35;54.01
71291;DHT22;59073;51.994;4.448;2022-07-04T10:03:25;22.43;53.31
71291;DHT22;59073;51.994;4.448;2022-07-04T10:06:02;22.42;53.04
71291;DHT22;59073;51.994;4.448;2022-07-04T10:08:28;22.87;55.11
71291;DHT22;59073;51.994;4.448;2022-07-04T10:10:58;23.70;51.84
71291;DHT22;59073;51.994;4.448;2022-07-04T10:13:24;24.25;51.02
71291;DHT22;59073;51.994;4.448;2022-07-04T10:15:50;24.09;52.81
71291;DHT22;59073;51.994;4.448;2022-07-04T10:18:18;24.72;50.97
71291;DHT22;59073;51.994;4.448;2022-07-04T10:20:45;24.65;48.71
71291;DHT22;59073;51.994;4.448;2022-07-04T10:23:11;24.06;46.99
71291;DHT22;59073;51.994;4.448;2022-07-04T10:25:37;23.52;50.68
71291;DHT22;59073;51.994;4.448;2022-07-04T10:28:03;23.29;50.34
71291;DHT22;59073;51.994;4.448;2022-07-04T10:30:32;22.87;48.98
71291;DHT22;59073;51.994;4.448;2022-07-04T10:33:04;22.81;49.84
71291;DHT22;59073;51.994;4.448;2022-07-04T10:35:48;22.43;51.31
71291;DHT22;59073;51.994;4.448;2022-07-04T10:38:17;22.47;51.26
71291;DHT22;59073;51.994;4.448;2022-07-04T10:41:07;22.64;49.81
71291;DHT22;59073;51.994;4.448;2022-07-04T10:48:54;23.43;49.89
71291;DHT22;59073;51.994;4.448;2022-07-04T10:56:53;24.45;49.78
71291;DHT22;59073;51.994;4.448;2022-07-04T10:59:27;24.67;48.49
71291;DHT22;59073;51.994;4.448;2022-07-04T11:18:11;24.16;47.87
71291;DHT22;59073;51.994;4.448;2022-07-04T11:20:42;24.61;48.70
71291;DHT22;59073;51.994;4.448;2022-07-04T11:23:11;25.10;47.82
71291;DHT22;59073;51.994;4.448;2022-07-04T11:25:38;25.78;47.05
71291;DHT22;59073;51.994;4.448;2022-07-04T11:28:26;26.24;46.08
71291;DHT22;59073;51.994;4.448;2022-07-04T11:30:54;26.20;44.42
71291;DHT22;59073;51.994;4.448;2022-07-04T11:33:22;25.94;44.04
71291;DHT22;59073;51.994;4.448;2022-07-04T11:36:11;25.57;44.84
71291;DHT22;59073;51.994;4.448;2022-07-04T11:38:51;24.82;45.53
71291;DHT22;59073;51.994;4.448;2022-07-04T11:41:20;24.86;46.71
71291;DHT22;59073;51.994;4.448;2022-07-04T11:44:09;25.24;47.27
71291;DHT22;59073;51.994;4.448;2022-07-04T11:47:20;24.75;44.79
71291;DHT22;59073;51.994;4.448;2022-07-04T11:49:47;24.45;49.73
71291;DHT22;59073;51.994;4.448;2022-07-04T11:52:14;24.91;45.10
71291;DHT22;59073;51.994;4.448;2022-07-04T11:54:41;25.02;47.72
71291;DHT22;59073;51.994;4.448;2022-07-04T11:57:20;24.65;50.14
71291;DHT22;59073;51.994;4.448;2022-07-04T12:00:01;24.73;47.19
71291;DHT22;59073;51.994;4.448;2022-07-04T12:02:29;24.27;46.24
71291;DHT22;59073;51.994;4.448;2022-07-04T12:04:55;23.99;48.09
71291;DHT22;59073;51.994;4.448;2022-07-04T12:07:24;24.28;49.95
71291;DHT22;59073;51.994;4.448;2022-07-04T12:09:51;24.57;49.67
71291;DHT22;59073;51.994;4.448;2022-07-04T12:12:18;24.01;45.19
71291;DHT22;59073;51.994;4.448;2022-07-04T12:14:58;23.77;49.27
71291;DHT22;59073;51.994;4.448;2022-07-04T12:17:30;23.74;50.20
71291;DHT22;59073;51.994;4.448;2022-07-04T12:20:02;23.89;50.35
71291;DHT22;59073;51.994;4.448;2022-07-04T12:25:00;24.45;47.91
71291;DHT22;59073;51.994;4.448;2022-07-04T12:27:26;24.18;51.39
71291;DHT22;59073;51.994;4.448;2022-07-04T12:29:54;24.55;48.68
71291;DHT22;59073;51.994;4.448;2022-07-04T12:32:20;24.32;48.03
71291;DHT22;59073;51.994;4.448;2022-07-04T12:34:46;24.21;48.39
71291;DHT22;59073;51.994;4.448;2022-07-04T12:37:14;24.28;49.03
71291;DHT22;59073;51.994;4.448;2022-07-04T12:39:41;23.73;47.93
71291;DHT22;59073;51.994;4.448;2022-07-04T12:42:18;24.37;51.44
71291;DHT22;59073;51.994;4.448;2022-07-04T12:44:47;24.35;50.20
71291;DHT22;59073;51.994;4.448;2022-07-04T12:47:17;24.35;45.64
71291;DHT22;59073;51.994;4.448;2022-07-04T12:49:44;24.31;48.80
71291;DHT22;59073;51.994;4.448;2022-07-04T12:52:14;24.30;50.96
71291;DHT22;59073;51.994;4.448;2022-07-04T12:54:40;24.34;47.04
71291;DHT22;59073;51.994;4.448;2022-07-04T12:57:11;24.00;46.44
71291;DHT22;59073;51.994;4.448;2022-07-04T12:59:38;24.31;49.19
71291;DHT22;59073;51.994;4.448;2022-07-04T13:02:04;24.42;49.21
71291;DHT22;59073;51.994;4.448;2022-07-04T13:04:31;24.31;47.53
71291;DHT22;59073;51.994;4.448;2022-07-04T13:07:14;23.82;48.69
71291;DHT22;59073;51.994;4.448;2022-07-04T13:09:42;24.38;47.86
71291;DHT22;59073;51.994;4.448;2022-07-04T13:12:08;24.71;47.86
71291;DHT22;59073;51.994;4.448;2022-07-04T13:15:00;24.28;48.71
71291;DHT22;59073;51.994;4.448;2022-07-04T13:17:26;23.66;46.09
71291;DHT22;59073;51.994;4.448;2022-07-04T13:19:52;23.12;50.01
71291;DHT22;59073;51.994;4.448;2022-07-04T13:22:21;23.28;51.47
71291;DHT22;59073;51.994;4.448;2022-07-04T13:24:48;23.94;50.32
71291;DHT22;59073;51.994;4.448;2022-07-04T13:27:14;23.53;48.87
71291;DHT22;59073;51.994;4.448;2022-07-04T13:29:39;22.98;49.88
71291;DHT22;59073;51.994;4.448;2022-07-04T13:32:05;22.78;52.61
71291;DHT22;59073;51.994;4.448;2022-07-04T13:34:31;22.70;50.25
71291;DHT22;59073;51.994;4.448;2022-07-04T13:36:56;23.32;52.82
71291;DHT22;59073;51.994;4.448;2022-07-04T13:39:23;23.73;50.29
71291;DHT22;59073;51.994;4.448;2022-07-04T13:41:48;23.82;48.80
71291;DHT22;59073;51.994;4.448;2022-07-04T13:44:14;23.80;49.30
71291;DHT22;59073;51.994;4.448;2022-07-04T13:46:41;23.82;49.09
71291;DHT22;59073;51.994;4.448;2022-07-04T13:49:07;23.23;49.29
71291;DHT22;59073;51.994;4.448;2022-07-04T13:51:33;23.01;47.63
71291;DHT22;59073;51.994;4.448;2022-07-04T13:53:58;22.77;48.47
71291;DHT22;59073;51.994;4.448;2022-07-04T13:56:24;23.05;50.32
71291;DHT22;59073;51.994;4.448;2022-07-04T13:58:49;23.49;52.04
71291;DHT22;59073;51.994;4.448;2022-07-04T14:01:15;23.62;51.17
71291;DHT22;59073;51.994;4.448;2022-07-04T14:03:43;23.82;52.03
71291;DHT22;59073;51.994;4.448;2022-07-04T14:06:09;23.94;50.20
71291;DHT22;59073;51.994;4.448;2022-07-04T14:08:35;23.52;48.16
71291;DHT22;59073;51.994;4.448;2022-07-04T14:11:01;23.90;48.81
71291;DHT22;59073;51.994;4.448;2022-07-04T14:13:27;24.03;50.84
71291;DHT22;59073;51.994;4.448;2022-07-04T14:15:53;24.06;50.05
71291;DHT22;59073;51.994;4.448;2022-07-04T14:18:18;24.10;50.61
71291;DHT22;59073;51.994;4.448;2022-07-04T14:20:44;23.90;48.44
71291;DHT22;59073;51.994;4.448;2022-07-04T14:23:09;24.01;49.71
71291;DHT22;59073;51.994;4.448;2022-07-04T14:25:35;24.23;50.23
71291;DHT22;59073;51.994;4.448;2022-07-04T14:28:00;24.17;49.23
71291;DHT22;59073;51.994;4.448;2022-07-04T14:30:25;24.16;50.44
71291;DHT22;59073;51.994;4.448;2022-07-04T14:32:51;24.25;49.98
71291;DHT22;59073;51.994;4.448;2022-07-04T14:35:17;24.34;48.47
71291;DHT22;59073;51.994;4.448;2022-07-04T14:37:43;24.31;48.68
71291;DHT22;59073;51.994;4.448;2022-07-04T14:40:09;24.16;49.43
71291;DHT22;59073;51.994;4.448;2022-07-04T14:42:35;23.82;49.67
71291;DHT22;59073;51.994;4.448;2022-07-04T14:45:00;23.62;48.89
71291;DHT22;59073;51.994;4.448;2022-07-04T14:47:26;23.58;50.90
71291;DHT22;59073;51.994;4.448;2022-07-04T14:49:51;23.94;51.40
71291;DHT22;59073;51.994;4.448;2022-07-04T14:52:17;23.90;50.32
71291;DHT22;59073;51.994;4.448;2022-07-04T14:54:42;23.87;49.49
71291;DHT22;59073;51.994;4.448;2022-07-04T14:57:08;23.77;50.03
71291;DHT22;59073;51.994;4.448;2022-07-04T14:59:34;23.84;51.13
71291;DHT22;59073;51.994;4.448;2022-07-04T15:02:03;23.67;50.87
71291;DHT22;59073;51.994;4.448;2022-07-04T15:04:29;23.73;50.62
71291;DHT22;59073;51.994;4.448;2022-07-04T15:06:54;23.74;51.67
71291;DHT22;59073;51.994;4.448;2022-07-04T15:09:20;23.79;50.17
71291;DHT22;59073;51.994;4.448;2022-07-04T15:11:47;23.00;51.55
71291;DHT22;59073;51.994;4.448;2022-07-04T15:14:16;23.32;53.47
71291;DHT22;59073;51.994;4.448;2022-07-04T15:16:41;23.55;51.89
71291;DHT22;59073;51.994;4.448;2022-07-04T15:19:07;23.42;52.28
71291;DHT22;59073;51.994;4.448;2022-07-04T15:21:32;23.48;52.84
71291;DHT22;59073;51.994;4.448;2022-07-04T15:24:17;23.28;51.84
71291;DHT22;59073;51.994;4.448;2022-07-04T15:26:48;23.14;51.38
71291;DHT22;59073;51.994;4.448;2022-07-04T15:29:15;23.32;51.37
71291;DHT22;59073;51.994;4.448;2022-07-04T15:31:44;22.98;52.36
71291;DHT22;59073;51.994;4.448;2022-07-04T15:34:10;22.86;51.80
71291;DHT22;59073;51.994;4.448;2022-07-04T15:36:36;22.64;52.16
71291;DHT22;59073;51.994;4.448;2022-07-04T15:39:09;22.36;51.52
71291;DHT22;59073;51.994;4.448;2022-07-04T15:41:36;22.51;55.77
71291;DHT22;59073;51.994;4.448;2022-07-04T15:44:02;22.28;52.38
71291;DHT22;59073;51.994;4.448;2022-07-04T15:46:28;22.29;54.68
71291;DHT22;59073;51.994;4.448;2022-07-04T15:48:53;22.24;51.73
71291;DHT22;59073;51.994;4.448;2022-07-04T15:51:19;22.60;54.28
71291;DHT22;59073;51.994;4.448;2022-07-04T15:53:44;22.70;53.23
71291;DHT22;59073;51.994;4.448;2022-07-04T15:56:10;22.81;52.44
71291;DHT22;59073;51.994;4.448;2022-07-04T15:58:35;22.70;54.19
71291;DHT22;59073;51.994;4.448;2022-07-04T16:01:01;22.60;50.65
71291;DHT22;59073;51.994;4.448;2022-07-04T16:03:26;22.47;52.48
71291;DHT22;59073;51.994;4.448;2022-07-04T16:05:52;22.60;51.00